Plymouth, MI (48170)

10:36 AM EST on December 27, 2014 (GMT -0500)
Napier Observatory | Change Station
CLOSE
Current Station
Personal Weather Station
Location: Canton, MI
Elevation: 798 ft
Nearby Weather Stations

Elev 798 ft 42.34 °N, 83.55 °W | Updated 4 seconds ago

Overcast
Overcast
42.6 °F
Feels Like 43 °F
N
0.0
Wind Variable Wind from SSE
Gusts 11.0 mph

Today
High -- | Low -- °F
--% Chance of Precip.
Yesterday
High -- | Low -- °F
Precip. -- in
8:02 AM 5:08 PM
Waxing Crescent, 37% visible
Pressure 30.09 in
Visibility 7.0 miles
Clouds Few 1100 ft
Mostly Cloudy 1600 ft
Overcast 3400 ft
Windchill 43 °F
Dew Point 41 °F
Humidity 95%
Rainfall 0.05 in
Snow Depth Not available.
UV 0 out of 12
Pollen .10 out of 12
Air Quality Not available.
Flu Activity Not available.
METAR KYIP 271453Z 19012KT 7SM FEW011 BKN016 OVC034 08/05 A3008 RMK AO2 RAE46 SLP187 P0001 60005 T00830050 56003

More Conditions Fewer Conditions

Pressure 30.09 in
Visibility 7.0 miles
Clouds Few 1100 ft
Mostly Cloudy 1600 ft
Overcast 3400 ft
Windchill 43 °F
Dew Point 41 °F
Humidity 95%
Rainfall 0.05 in
Snow Depth Not available.
UV 0 out of 12
Pollen .10 out of 12
Air Quality Not available.
Flu Activity Not available.
METAR KYIP 271453Z 19012KT 7SM FEW011 BKN016 OVC034 08/05 A3008 RMK AO2 RAE46 SLP187 P0001 60005 T00830050 56003

More Conditions Fewer Conditions

10-Day Weather Forecast

Almanac

Astronomy

Dec. 27, 2014 Rise Set
Actual Time
Civil Twilight
Nautical Twilight
Astronomical Twilight
Moon
Length of Visible Light
Length of Day
Tomorrow will be .
, % of the Moon is Illuminated

Today's Extremes

State Highs State Lows

Community

WunderPhotos

Upload Photos

1,780,933 photos uploaded!

WunderBlogs® & News

Nearby

Air Quality

  Air Quality AQ Index Pollutant
Not available.

Snow Depth

Station Depth Elevation

Earthquake Activity

City Distance Mag. Time & Date
Minimum magnitude displayed is 2.5.

Coastal Water Temperatures

Place Temperature

Nearby Weather Stations